createdAt,value
2019-01-18T00:00:42.934Z,3.57
2019-01-18T00:03:12.324Z,2.93
2019-01-18T00:05:41.667Z,3.17
2019-01-18T00:08:11.063Z,4.33
2019-01-18T00:10:40.464Z,6.83
2019-01-18T00:13:09.808Z,6.50
2019-01-18T00:15:39.242Z,3.90
2019-01-18T00:18:09.815Z,3.33
2019-01-18T00:20:39.252Z,4.67
2019-01-18T00:23:08.648Z,3.23
2019-01-18T00:25:39.737Z,4.47
2019-01-18T00:28:09.092Z,3.10
2019-01-18T00:30:38.451Z,6.90
2019-01-18T00:33:07.907Z,4.73
2019-01-18T00:35:37.323Z,3.70
2019-01-18T00:38:06.757Z,4.67
2019-01-18T00:40:36.176Z,6.67
2019-01-18T00:43:05.628Z,4.87
2019-01-18T00:45:35.004Z,1.80
2019-01-18T00:48:04.667Z,4.00
2019-01-18T00:50:34.097Z,4.57
2019-01-18T00:53:06.573Z,6.47
2019-01-18T00:55:35.869Z,5.00
2019-01-18T00:58:05.246Z,2.90
2019-01-18T01:00:34.768Z,4.10
2019-01-18T01:03:04.458Z,2.20
2019-01-18T01:05:33.964Z,6.47
2019-01-18T01:08:03.366Z,6.53
2019-01-18T01:10:32.777Z,6.37
2019-01-18T01:13:02.164Z,4.50
2019-01-18T01:15:31.518Z,3.33
2019-01-18T01:18:00.888Z,4.00
2019-01-18T01:20:30.246Z,4.63
2019-01-18T01:22:59.708Z,4.53
2019-01-18T01:25:29.065Z,4.93
2019-01-18T01:27:58.422Z,2.03
2019-01-18T01:30:28.035Z,3.07
2019-01-18T01:32:57.400Z,6.73
2019-01-18T01:35:26.842Z,5.83
2019-01-18T01:37:56.196Z,4.13
2019-01-18T01:40:26.805Z,6.50
2019-01-18T01:42:56.320Z,5.23
2019-01-18T01:45:25.814Z,1.77
2019-01-18T01:47:55.298Z,5.43
2019-01-18T01:50:26.020Z,7.80
2019-01-18T01:52:55.599Z,5.17
2019-01-18T01:55:25.107Z,3.07
2019-01-18T01:57:54.550Z,6.00
2019-01-18T02:00:26.311Z,5.17
2019-01-18T02:02:55.819Z,5.57
2019-01-18T02:05:25.277Z,5.77
2019-01-18T02:07:54.756Z,4.93
2019-01-18T02:10:24.277Z,4.27
2019-01-18T02:12:53.646Z,5.87
2019-01-18T02:15:25.054Z,5.70
2019-01-18T02:17:54.631Z,4.07
2019-01-18T02:20:24.840Z,5.47
2019-01-18T02:22:54.434Z,5.50
2019-01-18T02:25:23.770Z,3.70
2019-01-18T02:27:53.134Z,4.67
2019-01-18T02:30:27.143Z,4.90
2019-01-18T02:32:56.782Z,4.60
2019-01-18T02:35:26.204Z,6.57
2019-01-18T02:37:55.641Z,4.00
2019-01-18T02:40:25.328Z,4.17
2019-01-18T02:42:54.702Z,7.03
2019-01-18T02:45:24.597Z,5.37
2019-01-18T02:47:54.477Z,6.50
2019-01-18T02:50:23.846Z,9.17
2019-01-18T02:52:53.136Z,3.90
2019-01-18T02:55:28.802Z,9.10
2019-01-18T02:57:53.556Z,7.23
2019-01-18T03:00:23.974Z,10.33
2019-01-18T03:02:53.547Z,5.63
2019-01-18T03:05:25.267Z,19.17
2019-01-18T03:07:54.758Z,5.93
2019-01-18T03:10:26.854Z,13.63
2019-01-18T03:12:56.355Z,4.10
2019-01-18T03:15:25.731Z,5.40
2019-01-18T03:17:55.160Z,3.07
2019-01-18T03:20:24.529Z,5.57
2019-01-18T03:22:53.926Z,4.00
2019-01-18T03:25:26.878Z,23.43
2019-01-18T03:27:56.329Z,5.90
2019-01-18T03:30:25.823Z,5.97
2019-01-18T03:32:55.252Z,4.57
2019-01-18T03:35:24.630Z,5.43
2019-01-18T03:37:54.062Z,5.33
2019-01-18T03:40:23.514Z,5.83
2019-01-18T03:42:53.515Z,3.20
2019-01-18T03:45:22.996Z,4.93
2019-01-18T03:47:52.363Z,5.20
2019-01-18T03:50:25.823Z,5.97
2019-01-18T03:52:55.313Z,4.10
2019-01-18T03:55:24.755Z,5.80
2019-01-18T03:57:54.266Z,7.63
2019-01-18T04:00:28.372Z,3.00
2019-01-18T04:02:57.912Z,6.83
2019-01-18T04:05:27.340Z,5.17
2019-01-18T04:07:56.713Z,6.60
2019-01-18T04:10:26.151Z,5.13
2019-01-18T04:12:55.572Z,4.07
2019-01-18T04:15:25.091Z,4.90
2019-01-18T04:17:54.450Z,5.30
2019-01-18T04:20:24.276Z,11.37
2019-01-18T04:22:53.773Z,9.23
2019-01-18T04:25:27.281Z,6.00
2019-01-18T04:27:56.677Z,10.40
2019-01-18T04:30:33.036Z,5.83
2019-01-18T04:32:57.209Z,10.13
2019-01-18T04:35:26.626Z,6.83
2019-01-18T04:37:56.076Z,8.37
2019-01-18T04:40:27.490Z,6.20
2019-01-18T04:42:57.268Z,9.27
2019-01-18T04:45:26.696Z,8.07
2019-01-18T04:47:56.055Z,9.10
2019-01-18T04:50:29.393Z,6.73
2019-01-18T04:52:58.746Z,6.77
2019-01-18T04:55:28.111Z,4.63
2019-01-18T04:57:59.105Z,6.93
2019-01-18T05:00:30.453Z,5.73
2019-01-18T05:02:59.932Z,6.33
2019-01-18T05:05:29.356Z,9.27
2019-01-18T05:07:58.730Z,6.27
2019-01-18T05:10:29.015Z,9.67
2019-01-18T05:12:58.553Z,4.87
2019-01-18T05:15:30.320Z,3.70
2019-01-18T05:17:59.695Z,5.50
2019-01-18T05:20:29.185Z,5.63
2019-01-18T05:22:58.617Z,6.83
2019-01-18T05:25:27.915Z,8.33
2019-01-18T05:27:57.269Z,7.80
2019-01-18T05:30:28.479Z,7.47
2019-01-18T05:32:57.913Z,4.30
2019-01-18T05:35:27.351Z,8.03
2019-01-18T05:37:56.780Z,6.40
2019-01-18T05:40:26.211Z,7.80
2019-01-18T05:42:55.671Z,5.47
2019-01-18T05:45:25.174Z,7.60
2019-01-18T05:47:54.550Z,7.30
2019-01-18T05:50:26.467Z,6.47
2019-01-18T05:52:55.913Z,9.13
2019-01-18T05:55:25.543Z,5.97
2019-01-18T05:57:54.934Z,6.77
2019-01-18T06:00:37.377Z,9.17
2019-01-18T06:03:06.764Z,10.67
2019-01-18T06:05:39.236Z,12.50
2019-01-18T06:08:08.687Z,10.40
2019-01-18T06:10:38.111Z,10.10
2019-01-18T06:13:07.466Z,10.70
2019-01-18T06:15:36.844Z,12.10
2019-01-18T06:18:06.378Z,11.17
2019-01-18T06:20:35.764Z,10.87
2019-01-18T06:23:05.194Z,11.27
2019-01-18T06:25:34.882Z,16.53
2019-01-18T06:28:04.438Z,14.60
2019-01-18T06:30:33.918Z,19.67
2019-01-18T06:33:03.335Z,16.27
2019-01-18T06:35:32.757Z,42.50
2019-01-18T06:38:02.239Z,18.70
2019-01-18T06:40:31.684Z,19.37
2019-01-18T06:43:01.060Z,15.87
2019-01-18T06:45:31.354Z,12.73
2019-01-18T06:48:00.741Z,10.63
2019-01-18T06:50:30.109Z,12.97
2019-01-18T06:52:59.555Z,12.73
2019-01-18T06:55:29.015Z,11.57
2019-01-18T06:57:58.385Z,10.00
2019-01-18T07:00:29.992Z,9.03
2019-01-18T07:02:59.414Z,8.17
2019-01-18T07:05:28.801Z,11.60
2019-01-18T07:07:58.156Z,9.30
2019-01-18T07:10:27.580Z,10.33
2019-01-18T07:12:57.022Z,9.30
2019-01-18T07:15:26.383Z,12.23
2019-01-18T07:17:55.746Z,16.53
2019-01-18T07:20:25.144Z,19.17
2019-01-18T07:22:54.654Z,15.47
2019-01-18T07:25:28.678Z,11.97
2019-01-18T07:27:58.039Z,15.87
2019-01-18T07:30:32.895Z,16.20
2019-01-18T07:33:02.406Z,14.03
2019-01-18T07:35:31.946Z,13.13
2019-01-18T07:38:01.313Z,12.87
2019-01-18T07:40:30.700Z,10.33
2019-01-18T07:43:00.063Z,15.23
2019-01-18T07:45:30.787Z,13.33
2019-01-18T07:48:00.228Z,13.60
2019-01-18T07:50:29.628Z,27.33
2019-01-18T07:52:59.128Z,29.87
2019-01-18T07:55:28.679Z,19.53
2019-01-18T07:57:57.986Z,15.30
2019-01-18T08:00:29.131Z,24.50
2019-01-18T08:02:58.618Z,22.10
2019-01-18T08:05:29.197Z,21.30
2019-01-18T08:07:58.819Z,25.27
2019-01-18T08:10:28.376Z,20.97
2019-01-18T08:12:57.838Z,21.70
2019-01-18T08:15:28.403Z,14.97
2019-01-18T08:17:58.144Z,18.83
2019-01-18T08:20:28.692Z,17.00
2019-01-18T08:22:58.410Z,12.90
2019-01-18T08:25:27.881Z,11.60
2019-01-18T08:27:57.296Z,13.93
2019-01-18T08:30:28.468Z,16.27
2019-01-18T08:32:57.829Z,15.87
2019-01-18T08:35:28.052Z,13.30
2019-01-18T08:37:57.329Z,13.60
2019-01-18T08:40:30.731Z,12.13
2019-01-18T08:43:00.039Z,12.70
2019-01-18T08:45:32.539Z,13.97
2019-01-18T08:48:01.927Z,15.30
2019-01-18T08:50:33.004Z,11.87
2019-01-18T08:53:02.406Z,15.40
2019-01-18T08:55:31.928Z,15.37
2019-01-18T08:58:01.375Z,16.33
2019-01-18T09:00:32.143Z,11.03
2019-01-18T09:03:01.650Z,15.27
2019-01-18T09:05:32.075Z,11.40
2019-01-18T09:08:04.611Z,14.07
2019-01-18T09:10:35.979Z,9.37
2019-01-18T09:13:05.367Z,14.47
2019-01-18T09:15:34.771Z,14.63
2019-01-18T09:18:04.491Z,13.60
2019-01-18T09:20:33.944Z,11.00
2019-01-18T09:23:03.565Z,15.13
2019-01-18T09:25:33.104Z,13.47
2019-01-18T09:28:02.467Z,15.80
2019-01-18T09:30:33.648Z,13.53
2019-01-18T09:33:04.615Z,17.37
2019-01-18T09:35:34.415Z,14.17
2019-01-18T09:38:05.783Z,14.37
2019-01-18T09:40:35.235Z,15.13
2019-01-18T09:43:04.767Z,14.43
2019-01-18T09:45:34.286Z,18.97
2019-01-18T09:48:04.393Z,15.83
2019-01-18T09:50:33.909Z,11.97
2019-01-18T09:53:05.514Z,10.70
2019-01-18T09:55:35.648Z,10.70
2019-01-18T09:58:05.248Z,12.93
2019-01-18T10:00:36.878Z,12.43
2019-01-18T10:03:06.332Z,13.30
2019-01-18T10:05:35.671Z,11.60
2019-01-18T10:08:05.194Z,9.53
2019-01-18T10:10:34.579Z,12.40
2019-01-18T10:13:04.691Z,10.27
2019-01-18T10:15:39.427Z,14.37
2019-01-18T10:18:09.224Z,9.03
2019-01-18T10:20:38.613Z,13.50
2019-01-18T10:23:08.076Z,13.17
2019-01-18T10:25:37.470Z,10.23
2019-01-18T10:28:06.839Z,13.27
2019-01-18T10:30:36.250Z,10.30
2019-01-18T10:33:05.846Z,14.97
2019-01-18T10:35:35.313Z,11.53
2019-01-18T10:38:05.011Z,9.73
2019-01-18T10:40:34.455Z,14.27
2019-01-18T10:43:04.008Z,12.50
2019-01-18T10:45:33.427Z,10.30
2019-01-18T10:48:02.779Z,7.90
2019-01-18T10:50:32.636Z,9.27
2019-01-18T10:53:02.010Z,7.60
2019-01-18T10:55:31.378Z,6.43
2019-01-18T10:58:00.815Z,9.63
2019-01-18T11:00:32.811Z,7.67
2019-01-18T11:03:02.240Z,6.37
2019-01-18T11:05:31.604Z,8.40
2019-01-18T11:08:00.989Z,7.87
2019-01-18T11:10:30.521Z,6.80
2019-01-18T11:12:59.967Z,12.07
2019-01-18T11:15:29.715Z,10.17
2019-01-18T11:17:59.176Z,14.10
2019-01-18T11:20:34.190Z,7.87
2019-01-18T11:23:03.619Z,8.93
2019-01-18T11:25:32.992Z,9.40
2019-01-18T11:28:02.359Z,7.20
2019-01-18T11:30:31.859Z,8.87
2019-01-18T11:33:01.238Z,10.87
2019-01-18T11:35:30.717Z,11.40
2019-01-18T11:38:00.211Z,10.47
2019-01-18T11:40:29.752Z,16.27
2019-01-18T11:43:06.260Z,19.67
2019-01-18T11:45:35.665Z,8.63
2019-01-18T11:48:05.274Z,7.00
2019-01-18T11:50:34.631Z,9.43
2019-01-18T11:53:04.194Z,9.03
2019-01-18T11:55:33.732Z,9.20
2019-01-18T11:58:03.224Z,9.93
2019-01-18T12:00:37.795Z,14.30
2019-01-18T12:03:03.864Z,14.93
2019-01-18T12:05:33.225Z,13.93
2019-01-18T12:08:02.671Z,9.13
2019-01-18T12:10:32.110Z,9.30
2019-01-18T12:13:01.492Z,13.67
2019-01-18T12:15:31.046Z,8.47
2019-01-18T12:18:00.641Z,13.57
2019-01-18T12:20:32.856Z,9.70
2019-01-18T12:23:02.309Z,9.87
2019-01-18T12:25:31.786Z,9.70
2019-01-18T12:28:01.232Z,9.67
2019-01-18T12:30:33.937Z,12.10
2019-01-18T12:33:03.308Z,9.50
2019-01-18T12:35:32.655Z,16.43
2019-01-18T12:38:02.028Z,13.43
2019-01-18T12:40:31.429Z,7.97
2019-01-18T12:43:00.824Z,13.40
2019-01-18T12:45:30.290Z,12.87
2019-01-18T12:47:59.692Z,9.80
2019-01-18T12:50:33.546Z,10.20
2019-01-18T12:53:03.018Z,7.83
2019-01-18T12:55:32.645Z,10.40
2019-01-18T12:58:02.036Z,11.53
2019-01-18T13:00:31.482Z,14.80
2019-01-18T13:03:01.168Z,8.67
2019-01-18T13:05:33.567Z,12.00
2019-01-18T13:08:02.920Z,14.27
2019-01-18T13:10:32.212Z,18.43
2019-01-18T13:13:01.769Z,9.30
2019-01-18T13:15:39.670Z,14.70
2019-01-18T13:18:09.073Z,7.90
2019-01-18T13:20:38.482Z,13.17
2019-01-18T13:23:07.900Z,8.97
2019-01-18T13:25:37.404Z,17.80
2019-01-18T13:28:06.863Z,11.83
2019-01-18T13:30:36.360Z,13.60
2019-01-18T13:33:05.944Z,8.40
2019-01-18T13:35:35.383Z,16.03
2019-01-18T13:38:05.016Z,12.83
2019-01-18T13:40:34.456Z,12.83
2019-01-18T13:43:04.042Z,14.03
2019-01-18T13:45:33.580Z,13.27
2019-01-18T13:48:03.024Z,9.17
2019-01-18T13:50:32.394Z,9.97
2019-01-18T13:53:01.750Z,7.40
2019-01-18T13:55:31.513Z,10.20
2019-01-18T13:58:00.919Z,12.43
2019-01-18T14:00:30.282Z,13.60
2019-01-18T14:02:59.654Z,10.10
2019-01-18T14:05:29.044Z,10.77
2019-01-18T14:07:58.416Z,9.57
2019-01-18T14:10:32.036Z,12.97
2019-01-18T14:13:01.439Z,7.40
2019-01-18T14:15:30.815Z,8.77
2019-01-18T14:18:00.185Z,10.70
2019-01-18T14:20:30.129Z,12.17
2019-01-18T14:22:59.557Z,23.93
2019-01-18T14:25:28.998Z,10.53
2019-01-18T14:27:58.505Z,8.50
2019-01-18T14:30:28.732Z,8.67
2019-01-18T14:32:58.097Z,12.83
2019-01-18T14:35:27.458Z,10.63
2019-01-18T14:37:56.921Z,13.23
2019-01-18T14:40:26.274Z,9.30
2019-01-18T14:42:56.136Z,10.40
2019-01-18T14:45:28.591Z,11.83
2019-01-18T14:47:58.100Z,12.87
2019-01-18T14:50:27.445Z,7.47
2019-01-18T14:52:56.857Z,11.17
2019-01-18T14:55:26.308Z,11.10
2019-01-18T14:57:55.911Z,11.33
2019-01-18T15:00:34.289Z,7.87
2019-01-18T15:03:04.578Z,8.70
2019-01-18T15:05:34.085Z,10.07
2019-01-18T15:08:03.529Z,13.70
2019-01-18T15:10:32.893Z,11.13
2019-01-18T15:13:11.063Z,9.93
2019-01-18T15:15:40.440Z,9.10
2019-01-18T15:18:09.800Z,10.83
2019-01-18T15:20:39.261Z,10.23
2019-01-18T15:23:08.634Z,9.63
2019-01-18T15:25:38.077Z,7.97
2019-01-18T15:28:07.514Z,9.43
2019-01-18T15:30:36.950Z,7.20
2019-01-18T15:33:09.284Z,8.23
2019-01-18T15:35:37.456Z,12.53
2019-01-18T15:38:07.295Z,8.93
2019-01-18T15:40:39.995Z,8.87
2019-01-18T15:43:10.348Z,10.00
2019-01-18T15:45:39.839Z,16.40
2019-01-18T15:48:09.237Z,6.87
2019-01-18T15:50:39.218Z,11.27
2019-01-18T15:53:08.716Z,9.30
2019-01-18T15:55:38.270Z,10.53
2019-01-18T15:58:07.710Z,18.03
2019-01-18T16:00:39.344Z,6.97
2019-01-18T16:03:15.639Z,11.73
2019-01-18T16:05:39.877Z,9.97
2019-01-18T16:08:09.513Z,18.43
2019-01-18T16:10:38.899Z,8.53
2019-01-18T16:13:08.257Z,8.10
2019-01-18T16:15:43.269Z,11.30
2019-01-18T16:18:15.720Z,7.83
2019-01-18T16:20:45.156Z,10.27
2019-01-18T16:23:14.520Z,8.93
2019-01-18T16:25:43.879Z,11.30
2019-01-18T16:28:13.243Z,8.40
2019-01-18T16:30:42.628Z,11.60
2019-01-18T16:33:11.990Z,13.50
2019-01-18T16:35:41.373Z,11.40
2019-01-18T16:38:12.486Z,14.37
2019-01-18T16:40:41.987Z,19.70
2019-01-18T16:43:23.377Z,21.10
2019-01-18T16:45:52.839Z,16.20
2019-01-18T16:48:23.546Z,15.13
2019-01-18T16:50:52.955Z,15.83
2019-01-18T16:53:22.339Z,12.13
2019-01-18T16:55:51.700Z,15.10
2019-01-18T16:58:21.083Z,16.63
2019-01-18T17:00:59.076Z,24.47
2019-01-18T17:03:30.589Z,35.03
2019-01-18T17:05:59.613Z,19.77
2019-01-18T17:08:29.038Z,25.17
2019-01-18T17:10:58.544Z,22.73
2019-01-18T17:13:28.151Z,17.47
2019-01-18T17:15:57.583Z,14.73
2019-01-18T17:18:27.270Z,12.53
2019-01-18T17:20:56.687Z,14.40
2019-01-18T17:23:26.070Z,16.73
2019-01-18T17:25:55.447Z,12.03
2019-01-18T17:28:24.896Z,14.67
2019-01-18T17:30:54.193Z,14.93
2019-01-18T17:33:23.485Z,12.67
2019-01-18T17:35:58.759Z,14.63
2019-01-18T17:38:45.878Z,14.03
2019-01-18T17:41:30.024Z,15.57
2019-01-18T17:44:02.541Z,12.20
2019-01-18T17:46:46.587Z,10.57
2019-01-18T17:49:38.480Z,11.40
2019-01-18T17:52:10.994Z,8.10
2019-01-18T17:54:49.043Z,8.40
2019-01-18T17:57:43.985Z,8.97
2019-01-18T18:00:38.612Z,11.83
2019-01-18T18:03:27.371Z,17.07
2019-01-18T18:06:11.479Z,12.97
2019-01-18T18:08:52.776Z,11.30
2019-01-18T18:11:30.790Z,11.13
2019-01-18T18:14:10.683Z,11.07
2019-01-18T18:16:52.029Z,15.73
2019-01-18T18:19:50.003Z,13.63
2019-01-18T18:22:40.144Z,12.60
2019-01-18T18:25:18.358Z,10.83
2019-01-18T18:27:59.626Z,17.87
2019-01-18T18:30:32.093Z,13.57
2019-01-18T18:33:10.290Z,15.60
2019-01-18T18:36:00.813Z,16.43
2019-01-18T18:38:40.695Z,18.77
2019-01-18T18:41:27.766Z,12.83
2019-01-18T18:44:19.858Z,14.63
2019-01-18T18:47:11.723Z,17.97
2019-01-18T18:49:55.878Z,19.33
2019-01-18T18:52:49.276Z,17.17
2019-01-18T18:55:39.602Z,13.17
2019-01-18T18:58:26.195Z,13.87
2019-01-18T19:01:01.258Z,16.90
2019-01-18T19:03:57.377Z,17.97
2019-01-18T19:06:49.383Z,16.47
2019-01-18T19:09:42.794Z,17.73
2019-01-18T19:12:34.699Z,16.77
2019-01-18T19:15:12.659Z,18.57
2019-01-18T19:17:59.730Z,18.83
2019-01-18T19:20:32.199Z,20.10
2019-01-18T19:23:13.443Z,17.53
2019-01-18T19:25:45.906Z,19.47
2019-01-18T19:28:42.215Z,19.13
2019-01-18T19:31:38.403Z,16.23
2019-01-18T19:34:10.857Z,16.67
2019-01-18T19:36:46.008Z,23.03
2019-01-18T19:39:21.137Z,18.33
2019-01-18T19:41:59.143Z,14.60
2019-01-18T19:44:46.336Z,19.17
2019-01-18T19:47:21.830Z,20.13
2019-01-18T19:50:05.466Z,20.57
2019-01-18T19:52:46.627Z,28.83
2019-01-18T19:55:36.363Z,52.10
2019-01-18T19:58:20.991Z,43.00
2019-01-18T20:01:02.300Z,33.67
2019-01-18T20:03:43.589Z,48.50
2019-01-18T20:06:30.935Z,27.03
2019-01-18T20:09:14.563Z,26.57
2019-01-18T20:12:01.891Z,53.20
2019-01-18T20:14:49.296Z,40.17
2019-01-18T20:17:35.134Z,20.47
2019-01-18T20:20:10.540Z,19.70
2019-01-18T20:22:59.386Z,19.97
2019-01-18T20:25:37.505Z,19.13
2019-01-18T20:28:18.894Z,17.13
2019-01-18T20:31:00.207Z,15.20
2019-01-18T20:33:55.139Z,18.53
2019-01-18T20:36:51.620Z,18.30
2019-01-18T20:39:32.937Z,20.10
2019-01-18T20:42:37.046Z,16.27
2019-01-18T20:45:27.462Z,18.20
2019-01-18T20:48:08.568Z,16.67
2019-01-18T20:50:41.015Z,20.40
2019-01-18T20:53:37.489Z,20.03
2019-01-18T20:56:24.538Z,16.07
2019-01-18T20:59:04.303Z,19.50
2019-01-18T21:01:57.256Z,19.70
2019-01-18T21:04:49.068Z,18.37
2019-01-18T21:07:30.179Z,19.03
2019-01-18T21:10:17.689Z,17.37
2019-01-18T21:13:06.532Z,18.90
2019-01-18T21:16:02.837Z,21.20
2019-01-18T21:18:43.750Z,17.87
2019-01-18T21:21:22.014Z,17.77
2019-01-18T21:24:02.681Z,19.67
2019-01-18T21:26:49.917Z,16.30
2019-01-18T21:29:43.363Z,20.60
2019-01-18T21:32:30.683Z,15.60
2019-01-18T21:35:12.158Z,19.10
2019-01-18T21:37:50.476Z,17.70
2019-01-18T21:40:40.835Z,16.93
2019-01-18T21:43:40.456Z,18.17
2019-01-18T21:46:35.331Z,16.30
2019-01-18T21:49:22.770Z,19.43
2019-01-18T21:52:09.880Z,21.40
2019-01-18T21:54:48.037Z,19.80
2019-01-18T21:57:32.274Z,21.00
2019-01-18T22:00:19.720Z,19.37
2019-01-18T22:02:52.228Z,17.97
2019-01-18T22:05:40.816Z,20.80
2019-01-18T22:08:40.026Z,16.70
2019-01-18T22:11:15.433Z,17.03
2019-01-18T22:13:47.887Z,19.13
2019-01-18T22:16:20.354Z,17.73
2019-01-18T22:18:58.687Z,18.60
2019-01-18T22:21:37.789Z,18.27
2019-01-18T22:24:15.888Z,17.80
2019-01-18T22:27:03.277Z,20.13
2019-01-18T22:29:44.607Z,19.20
2019-01-18T22:32:25.726Z,17.23
2019-01-18T22:35:00.652Z,18.77
2019-01-18T22:37:56.893Z,18.23
2019-01-18T22:40:50.431Z,16.37
2019-01-18T22:43:55.465Z,17.70
2019-01-18T22:46:48.750Z,17.67
2019-01-18T22:49:33.103Z,16.47
2019-01-18T22:52:08.295Z,19.33
2019-01-18T22:55:00.270Z,18.60
2019-01-18T22:57:35.470Z,16.00
2019-01-18T23:00:09.631Z,18.80
2019-01-18T23:03:03.105Z,17.37
2019-01-18T23:05:52.243Z,19.47
2019-01-18T23:08:52.954Z,18.90
2019-01-18T23:11:28.104Z,18.20
2019-01-18T23:14:24.282Z,15.40
2019-01-18T23:17:08.650Z,15.87
2019-01-18T23:19:46.986Z,17.73
2019-01-18T23:22:25.397Z,23.33
2019-01-18T23:25:03.499Z,21.40
2019-01-18T23:28:08.894Z,17.30
2019-01-18T23:30:49.804Z,16.70
2019-01-18T23:33:38.669Z,13.40
2019-01-18T23:36:19.381Z,16.23
2019-01-18T23:39:20.317Z,18.60
2019-01-18T23:41:52.802Z,16.20
2019-01-18T23:44:39.411Z,15.53
2019-01-18T23:47:37.537Z,19.77
2019-01-18T23:50:30.618Z,20.37
2019-01-18T23:53:08.651Z,21.83
2019-01-18T23:55:50.480Z,18.67
2019-01-18T23:58:28.501Z,19.17
